Time;durP1;ratioP1;P1;durP2;ratioP2;P2;SDS_P1;SDS_P2;PMS_P1;PMS_P2;Temp;Humidity;BMP_temperature;BMP_pressure;BME280_temperature;BME280_humidity;BME280_pressure;Samples;Min_cycle;Max_cycle;Signal;HPM_P1;HPM_P2
2024/03/25 00:01:12;;;;;;;26.17;7.13;;;9.00;99.90;;;9.31;87.27;100660.66;5051636;28;20041;-62
2024/03/25 00:03:38;;;;;;;28.80;6.95;;;8.90;99.90;;;9.39;87.17;100659.75;5034826;28;20053;-62
2024/03/25 00:06:07;;;;;;;24.42;6.57;;;9.00;99.90;;;9.36;87.07;100649.19;5034807;28;20463;-62
2024/03/25 00:08:33;;;;;;;25.75;6.85;;;9.00;99.90;;;9.43;86.47;100664.13;5034727;28;20417;-62
2024/03/25 00:11:01;;;;;;;29.15;7.53;;;9.00;99.90;;;9.48;85.89;100664.13;5018257;28;20425;-62
2024/03/25 00:13:29;;;;;;;26.90;7.10;;;9.10;99.90;;;9.52;85.32;100660.59;5034560;28;20041;-63
2024/03/25 00:15:56;;;;;;;25.05;7.05;;;9.20;99.90;;;9.04;84.51;100579.81;5018164;28;20059;-62
2024/03/25 00:18:23;;;;;;;24.25;7.05;;;9.20;99.90;;;9.67;84.73;100664.06;5034881;28;20437;-62
2024/03/25 00:20:51;;;;;;;23.83;7.03;;;9.30;99.90;;;9.71;83.83;100680.75;5034501;28;20482;-61
2024/03/25 00:23:17;;;;;;;23.92;6.25;;;9.40;99.90;;;9.72;83.40;100658.72;5034486;28;20087;-61
2024/03/25 00:25:45;;;;;;;24.13;6.65;;;9.40;99.90;;;9.75;82.86;100664.91;5034299;28;20041;-62
2024/03/25 00:28:11;;;;;;;24.45;6.50;;;9.50;99.90;;;9.75;82.37;100666.66;5034258;28;20049;-62
2024/03/25 00:30:40;;;;;;;24.15;6.78;;;9.50;99.90;;;9.74;82.24;100671.06;5034708;28;20045;-62
2024/03/25 00:33:06;;;;;;;24.20;7.18;;;9.50;99.90;;;9.82;82.14;100665.72;5034387;28;20090;-62
2024/03/25 00:35:33;;;;;;;21.65;6.55;;;9.50;99.90;;;9.81;81.12;100664.00;5017786;28;20044;-62
2024/03/25 00:38:00;;;;;;;23.80;7.00;;;9.60;99.90;;;9.81;81.17;100669.28;5034464;28;20041;-61
2024/03/25 00:40:27;;;;;;;23.33;6.68;;;9.60;99.90;;;9.14;80.96;100547.22;5033983;28;20571;-63
2024/03/25 00:42:54;;;;;;;22.38;6.90;;;9.60;99.90;;;9.78;80.73;100664.88;5033892;28;20506;-62
2024/03/25 00:45:21;;;;;;;32.92;7.18;;;9.50;99.90;;;9.87;80.57;100664.81;5034247;28;20044;-63
2024/03/25 00:47:49;;;;;;;27.10;6.55;;;9.60;99.90;;;9.87;80.80;100677.19;5034194;28;20091;-62
2024/03/25 00:50:16;;;;;;;23.83;6.35;;;9.60;99.90;;;9.86;80.82;100668.38;5033851;28;20091;-62
2024/03/25 00:52:43;;;;;;;25.50;6.72;;;9.60;99.90;;;9.84;80.77;100667.50;5033905;28;20052;-62
2024/03/25 00:55:10;;;;;;;29.95;6.68;;;9.60;99.90;;;9.84;80.99;100674.53;5033864;28;20105;-62
2024/03/25 00:57:37;;;;;;;30.20;6.93;;;9.60;99.90;;;9.81;81.12;100670.13;5033947;28;20599;-62
2024/03/25 01:00:06;;;;;;;27.20;7.10;;;9.60;99.90;;;9.84;80.50;100677.16;5033866;28;20044;-62
2024/03/25 01:02:32;;;;;;;24.42;7.28;;;9.60;99.90;;;9.78;80.53;100675.44;5017347;28;20402;-63
2024/03/25 01:05:01;;;;;;;21.40;6.88;;;9.50;99.90;;;9.80;80.37;100678.06;5033572;28;20486;-62
2024/03/25 01:07:28;;;;;;;28.63;7.10;;;9.50;99.90;;;9.79;80.63;100687.75;5050204;28;20056;-63
2024/03/25 01:09:56;;;;;;;27.85;7.68;;;9.50;99.90;;;9.07;80.57;100553.44;5016517;28;20478;-63
2024/03/25 01:12:22;;;;;;;32.80;8.18;;;9.50;99.90;;;9.83;81.23;100688.63;5033479;28;20036;-62
2024/03/25 01:14:49;;;;;;;22.20;7.25;;;9.60;99.90;;;9.72;81.10;100666.66;5033407;28;20517;-62
2024/03/25 01:17:16;;;;;;;28.95;7.93;;;9.60;99.90;;;9.89;81.39;100678.91;5033186;28;20045;-62
2024/03/25 01:19:44;;;;;;;23.98;6.72;;;9.60;99.90;;;9.92;81.51;100678.00;5016448;28;20053;-62
2024/03/25 01:22:11;;;;;;;30.45;7.57;;;9.60;99.90;;;9.92;81.66;100681.53;5032907;28;20040;-62
2024/03/25 01:24:39;;;;;;;23.27;7.40;;;9.60;99.90;;;9.92;81.94;100675.38;5033270;28;20049;-62
2024/03/25 01:27:06;;;;;;;27.17;6.20;;;9.60;99.90;;;9.77;81.77;100646.41;5032622;28;20048;-62
2024/03/25 01:29:33;;;;;;;27.20;6.97;;;9.60;99.90;;;9.92;81.83;100668.34;5032610;28;20044;-62
2024/03/25 01:32:00;;;;;;;22.60;6.57;;;9.60;99.90;;;9.87;82.17;100672.75;5032593;28;20048;-62
2024/03/25 01:34:28;;;;;;;21.52;6.45;;;9.60;99.90;;;9.77;81.83;100652.56;5032533;28;20053;-62
2024/03/25 01:36:54;;;;;;;27.10;6.60;;;9.60;99.90;;;9.88;81.87;100671.00;5033074;28;20409;-62
2024/03/25 01:39:24;;;;;;;26.77;7.70;;;9.60;99.90;;;9.94;81.54;100671.84;5032738;28;20064;-62
2024/03/25 01:57:55;;;;;;;29.45;8.18;;;9.40;99.90;;;9.47;81.29;100657.97;5138221;23;19992;-63
2024/03/25 02:00:24;;;;;;;22.55;7.65;;;9.30;99.90;;;9.52;81.31;100669.41;4968842;28;20093;-63
2024/03/25 02:02:52;;;;;;;25.77;7.32;;;9.20;99.90;;;9.55;81.73;100665.84;4969260;28;20076;-63
2024/03/25 02:05:19;;;;;;;21.90;6.93;;;9.30;99.90;;;9.50;81.47;100667.63;4969298;28;20057;-63
2024/03/25 02:07:47;;;;;;;19.92;6.22;;;9.20;99.90;;;9.36;81.91;100657.13;4969376;28;20047;-62
2024/03/25 02:10:14;;;;;;;24.10;6.65;;;9.10;99.90;;;9.34;81.92;100661.53;4969522;28;20038;-64
2024/03/25 02:12:42;;;;;;;24.73;7.10;;;9.00;99.90;;;9.14;81.84;100639.56;4969268;28;20054;-63
2024/03/25 02:15:12;;;;;;;24.27;7.65;;;9.00;99.90;;;9.17;82.51;100638.69;4969014;28;20062;-63
2024/03/25 02:17:40;;;;;;;21.90;6.93;;;9.00;99.90;;;9.27;82.11;100657.13;4968708;28;20039;-63
2024/03/25 02:20:08;;;;;;;22.60;7.68;;;9.00;99.90;;;9.11;82.16;100647.50;4968948;28;20126;-63
2024/03/25 02:22:37;;;;;;;22.75;6.72;;;8.90;99.90;;;9.01;81.81;100651.03;4956621;28;20086;-63
2024/03/25 02:25:08;;;;;;;22.42;7.15;;;8.70;99.90;;;8.93;82.76;100642.25;4972769;28;20047;-62
2024/03/25 02:27:37;;;;;;;21.65;6.90;;;8.60;99.90;;;8.96;83.06;100637.84;4972982;28;20042;-62
2024/03/25 02:30:05;;;;;;;20.08;7.35;;;8.60;99.90;;;8.94;83.17;100634.34;4972936;28;20381;-62
2024/03/25 02:32:33;;;;;;;17.45;6.32;;;8.60;99.90;;;8.92;83.31;100635.25;4972600;28;20058;-62
2024/03/25 02:35:00;;;;;;;20.73;6.97;;;8.60;99.90;;;8.78;83.48;100623.81;4972453;28;20050;-62
2024/03/25 02:37:28;;;;;;;16.08;6.20;;;8.50;99.90;;;8.66;84.56;100622.09;4972738;28;20046;-62
2024/03/25 02:39:58;;;;;;;16.65;6.72;;;8.40;99.90;;;8.64;84.77;100625.59;4972468;28;20050;-62
2024/03/25 02:42:27;;;;;;;22.00;6.95;;;8.30;99.90;;;8.67;84.75;100629.09;4972629;28;20417;-62
2024/03/25 02:44:55;;;;;;;26.98;7.40;;;8.30;99.90;;;8.60;84.06;100616.81;4956336;28;20046;-62
2024/03/25 02:47:22;;;;;;;26.70;8.18;;;8.40;99.90;;;8.61;84.18;100628.25;4972111;28;20035;-63
2024/03/25 02:49:48;;;;;;;28.88;8.55;;;8.30;99.90;;;8.62;84.15;100629.97;4972442;28;20046;-62
2024/03/25 02:52:16;;;;;;;25.05;7.35;;;8.30;99.90;;;8.65;83.54;100627.38;4971977;28;20453;-63
2024/03/25 02:54:42;;;;;;;20.60;7.95;;;8.30;99.90;;;8.62;83.92;100624.72;4972640;28;20047;-62
2024/03/25 02:57:10;;;;;;;25.90;8.48;;;8.30;99.90;;;8.62;83.85;100616.81;4971881;28;20046;-62
2024/03/25 02:59:36;;;;;;;24.42;8.20;;;8.30;99.90;;;8.60;84.09;100615.91;4971854;28;20047;-62
2024/03/25 03:02:05;;;;;;;20.15;7.75;;;8.40;99.90;;;8.61;84.04;100615.06;4972263;28;20113;-62
2024/03/25 03:04:32;;;;;;;22.33;8.25;;;8.40;99.90;;;8.64;84.14;100612.41;4972579;28;20042;-62
2024/03/25 03:07:00;;;;;;;29.50;7.68;;;8.30;99.90;;;8.64;84.23;100599.22;4972441;28;20047;-62
2024/03/25 03:09:26;;;;;;;25.92;7.25;;;8.40;99.90;;;8.61;83.92;100615.06;4972235;28;20046;-62
2024/03/25 03:11:53;;;;;;;30.10;7.95;;;8.40;99.90;;;8.62;84.27;100617.69;4972066;28;20046;-63
2024/03/25 03:14:20;;;;;;;25.55;7.78;;;8.40;99.90;;;8.57;84.20;100615.94;4972308;28;20404;-62
2024/03/25 03:16:47;;;;;;;31.95;8.55;;;8.30;99.90;;;8.51;84.24;100615.94;4972095;28;20050;-62
2024/03/25 03:19:15;;;;;;;27.17;8.13;;;8.30;99.90;;;8.55;84.12;100604.50;4956119;28;20085;-63
2024/03/25 03:21:42;;;;;;;20.55;7.43;;;8.30;99.90;;;8.60;83.68;100610.66;4956199;28;20384;-62
2024/03/25 03:24:09;;;;;;;25.65;7.82;;;8.30;99.90;;;8.62;83.93;100599.22;4972358;28;20090;-62
2024/03/25 03:26:36;;;;;;;22.75;7.90;;;8.40;99.90;;;8.65;84.08;100598.38;4972377;28;20051;-62
2024/03/25 03:29:02;;;;;;;26.60;7.95;;;8.30;99.90;;;8.59;84.23;100603.63;4971964;28;20534;-62
2024/03/25 03:31:30;;;;;;;24.25;8.23;;;8.30;99.90;;;8.62;84.24;100600.97;4971960;28;20489;-62
2024/03/25 03:33:56;;;;;;;17.00;7.28;;;8.30;99.90;;;8.58;84.29;100607.13;4971541;28;20138;-62
2024/03/25 03:36:25;;;;;;;21.15;7.63;;;8.30;99.90;;;8.49;83.85;100589.59;4972946;28;20054;-62
2024/03/25 03:38:52;;;;;;;26.70;7.38;;;8.30;99.90;;;8.47;84.55;100591.34;4972341;28;20043;-62
2024/03/25 03:41:19;;;;;;;23.70;7.40;;;8.30;99.90;;;8.50;84.67;100599.22;4971861;28;20042;-62
2024/03/25 03:43:46;;;;;;;23.05;7.72;;;8.30;99.90;;;7.71;84.98;100469.25;4971840;28;20051;-62
2024/03/25 03:46:13;;;;;;;24.20;8.23;;;8.20;99.90;;;8.49;85.00;100597.50;4955613;28;20053;-62
2024/03/25 03:48:40;;;;;;;27.15;8.25;;;8.30;99.90;;;8.50;85.21;100595.72;4971457;28;20057;-63
2024/03/25 03:51:07;;;;;;;20.08;7.18;;;8.30;99.90;;;8.48;85.12;100584.31;4971586;28;20093;-63
2024/03/25 03:53:35;;;;;;;21.15;7.90;;;8.20;99.90;;;8.46;85.22;100596.63;4971559;28;20049;-63
2024/03/25 03:56:05;;;;;;;24.67;7.63;;;8.20;99.90;;;8.34;85.48;100575.53;4971316;28;20090;-62
2024/03/25 03:58:32;;;;;;;20.90;7.35;;;8.20;99.90;;;8.29;85.43;100559.72;4971699;28;20043;-63
2024/03/25 04:01:00;;;;;;;18.58;6.90;;;8.20;99.90;;;8.38;84.84;100588.69;4971701;28;20075;-63
2024/03/25 04:03:27;;;;;;;13.98;6.22;;;8.10;99.90;;;8.20;85.17;100588.69;4971164;28;20473;-63
2024/03/25 04:05:55;;;;;;;15.63;6.70;;;8.00;99.90;;;8.23;85.82;100586.91;4971065;28;20042;-62
2024/03/25 04:08:21;;;;;;;19.60;6.97;;;7.90;99.90;;;8.25;86.15;100591.31;4971496;28;20046;-63
2024/03/25 04:10:50;;;;;;;15.38;6.57;;;8.00;99.90;;;8.25;86.10;100586.94;4970782;28;20381;-62
2024/03/25 04:13:16;;;;;;;10.45;5.85;;;8.00;99.90;;;8.16;86.72;100592.19;4970685;28;20515;-62
2024/03/25 04:15:44;;;;;;;11.23;5.80;;;7.90;99.90;;;8.05;86.93;100581.63;4970676;28;20047;-62
2024/03/25 04:18:11;;;;;;;9.75;5.60;;;7.70;99.90;;;8.04;87.19;100584.25;4970699;28;20057;-62
2024/03/25 04:20:38;;;;;;;12.15;6.18;;;7.70;99.90;;;8.00;87.20;100580.75;4970587;28;20357;-62
2024/03/25 04:23:07;;;;;;;10.82;6.10;;;7.70;99.90;;;8.03;87.82;100583.38;4971312;28;20125;-63
2024/03/25 04:25:37;;;;;;;14.82;6.80;;;7.70;99.90;;;7.86;87.80;100577.22;4971039;28;20051;-62
2024/03/25 04:28:06;;;;;;;21.23;8.00;;;7.60;99.90;;;7.86;88.78;100576.31;4971120;28;20046;-62
2024/03/25 04:30:33;;;;;;;24.75;7.70;;;7.50;99.90;;;7.81;89.01;100568.44;4954818;28;20047;-62
2024/03/25 04:33:00;;;;;;;22.40;8.25;;;7.50;99.90;;;7.91;89.02;100585.13;4954707;28;20389;-62
2024/03/25 04:35:28;;;;;;;24.13;7.60;;;7.60;99.90;;;7.98;88.80;100579.88;4970713;28;20050;-62
